Time;durP1;ratioP1;P1;durP2;ratioP2;P2;SDS_P1;SDS_P2;PMS_P1;PMS_P2;Temp;Humidity;BMP_temperature;BMP_pressure;BME280_temperature;BME280_humidity;BME280_pressure;Samples;Min_cycle;Max_cycle;Signal;HPM_P1;HPM_P2
2023/07/10 00:01:06;;;;;;;7.72;0.98;;;18.50;99.90;;;;;;5047366;28;20056;-71
2023/07/10 00:03:32;;;;;;;4.38;0.70;;;18.50;99.90;;;;;;5028475;28;20422;-72
2023/07/10 00:05:59;;;;;;;2.97;0.60;;;18.50;99.90;;;;;;5029484;28;20090;-73
2023/07/10 00:08:26;;;;;;;6.40;1.02;;;18.50;99.90;;;;;;5046855;28;20039;-73
2023/07/10 00:10:52;;;;;;;5.53;0.93;;;18.60;99.90;;;;;;5035264;28;20029;-71
2023/07/10 00:13:21;;;;;;;5.10;0.63;;;18.60;99.90;;;;;;5027193;28;20039;-72
2023/07/10 00:15:49;;;;;;;2.15;0.63;;;18.60;99.90;;;;;;5026454;28;20033;-71
2023/07/10 00:18:16;;;;;;;2.60;0.70;;;18.60;99.90;;;;;;5027793;28;20033;-71
2023/07/10 00:20:45;;;;;;;3.67;0.93;;;18.60;99.90;;;;;;5008562;28;20029;-71
2023/07/10 00:23:11;;;;;;;5.60;0.80;;;18.60;99.90;;;;;;5006245;28;20123;-70
2023/07/10 00:25:37;;;;;;;6.15;1.02;;;18.60;99.90;;;;;;5021952;28;20038;-72
2023/07/10 00:28:08;;;;;;;3.90;1.00;;;18.60;99.90;;;;;;5009692;28;20488;-72
2023/07/10 00:30:33;;;;;;;4.70;1.00;;;18.60;99.90;;;;;;5008085;28;20037;-71
2023/07/10 00:32:59;;;;;;;2.03;0.70;;;18.60;99.90;;;;;;5027611;28;20083;-70
2023/07/10 00:35:27;;;;;;;3.40;0.90;;;18.60;99.90;;;;;;5026326;28;20100;-72
2023/07/10 00:38:02;;;;;;;2.80;0.68;;;18.60;99.90;;;;;;5021964;28;20037;-71
2023/07/10 00:40:30;;;;;;;2.42;0.68;;;18.50;99.90;;;;;;5030954;28;20761;-72
2023/07/10 00:43:09;;;;;;;3.60;0.70;;;18.60;99.90;;;;;;5031871;28;20344;-72
2023/07/10 00:45:34;;;;;;;4.45;1.20;;;18.60;99.90;;;;;;5029705;28;20037;-70
2023/07/10 00:48:31;;;;;;;3.08;1.00;;;18.60;99.90;;;;;;5030757;28;20026;-71
2023/07/10 00:51:01;;;;;;;3.15;0.47;;;18.60;99.90;;;;;;5027868;28;20088;-72
2023/07/10 00:53:31;;;;;;;;;;;18.60;99.90;;;;;;5030027;28;20030;-71
2023/07/10 00:56:00;;;;;;;4.10;0.57;;;18.60;99.90;;;;;;5031354;28;19921;-71
2023/07/10 00:58:42;;;;;;;4.70;0.80;;;18.60;99.90;;;;;;5031389;28;20034;-71
2023/07/10 01:01:09;;;;;;;1.05;0.47;;;18.60;99.90;;;;;;5031321;28;20048;-71
2023/07/10 01:03:37;;;;;;;2.70;1.08;;;18.50;99.90;;;;;;5028621;28;20030;-71
2023/07/10 01:06:27;;;;;;;3.88;0.80;;;18.50;99.90;;;;;;5030844;28;20670;-71
2023/07/10 01:09:00;;;;;;;5.28;1.48;;;18.50;99.90;;;;;;5021448;28;20349;-70
2023/07/10 01:11:26;;;;;;;4.32;1.20;;;18.50;99.90;;;;;;5029510;28;20473;-71
2023/07/10 01:13:53;;;;;;;4.20;0.75;;;18.50;99.90;;;;;;5030683;28;20029;-73
2023/07/10 01:16:20;;;;;;;5.13;1.13;;;18.40;99.90;;;;;;5030764;28;20523;-72
2023/07/10 01:18:46;;;;;;;8.77;1.10;;;18.40;99.90;;;;;;5029569;28;20037;-72
2023/07/10 01:21:30;;;;;;;2.42;0.85;;;18.30;99.90;;;;;;5030650;28;20056;-73
2023/07/10 01:23:59;;;;;;;3.80;0.90;;;18.30;99.90;;;;;;5029993;28;20057;-72
2023/07/10 01:26:25;;;;;;;3.63;1.00;;;18.30;99.90;;;;;;5030390;28;20399;-72
2023/07/10 01:28:53;;;;;;;5.28;1.70;;;18.30;99.90;;;;;;5030004;28;20091;-72
2023/07/10 01:31:20;;;;;;;4.07;1.00;;;18.30;99.90;;;;;;5030538;28;20091;-73
2023/07/10 01:34:12;;;;;;;6.65;1.30;;;18.20;99.90;;;;;;5027862;28;20064;-71
2023/07/10 01:36:40;;;;;;;3.05;1.10;;;18.20;99.90;;;;;;5026757;28;20040;-71
2023/07/10 01:39:15;;;;;;;5.38;1.10;;;18.20;99.90;;;;;;5029767;28;20116;-71
2023/07/10 01:41:43;;;;;;;3.67;0.73;;;18.20;99.90;;;;;;5024405;28;20099;-72
2023/07/10 01:44:28;;;;;;;4.30;1.33;;;18.10;99.90;;;;;;5030221;28;20400;-72
2023/07/10 01:46:55;;;;;;;4.97;1.17;;;18.10;99.90;;;;;;5049470;28;20403;-74
2023/07/10 01:49:27;;;;;;;5.10;1.00;;;18.10;99.90;;;;;;5049918;28;20031;-70
2023/07/10 01:51:54;;;;;;;4.05;1.75;;;18.10;99.90;;;;;;5049457;28;20340;-72
2023/07/10 01:54:20;;;;;;;2.40;0.98;;;18.10;99.90;;;;;;5031723;28;20044;-72
2023/07/10 01:56:46;;;;;;;6.50;1.30;;;18.00;99.90;;;;;;5048741;28;20025;-72
2023/07/10 01:59:12;;;;;;;3.05;1.27;;;18.00;99.90;;;;;;5031682;28;20025;-72
2023/07/10 02:01:38;;;;;;;3.40;1.17;;;17.90;99.90;;;;;;5048753;28;20041;-71
2023/07/10 02:04:03;;;;;;;7.00;1.00;;;17.90;99.90;;;;;;5049863;28;20036;-70
2023/07/10 02:06:31;;;;;;;2.80;1.30;;;17.80;99.90;;;;;;5048935;28;20033;-72
2023/07/10 02:08:57;;;;;;;3.38;1.20;;;17.70;99.90;;;;;;5049289;28;20136;-73
2023/07/10 02:11:23;;;;;;;6.00;1.60;;;17.70;99.90;;;;;;5049688;28;20570;-72
2023/07/10 02:13:48;;;;;;;4.78;1.80;;;17.70;99.90;;;;;;5030407;28;20029;-71
2023/07/10 02:16:15;;;;;;;3.10;1.10;;;17.60;99.90;;;;;;5049567;28;20685;-70
2023/07/10 02:18:41;;;;;;;6.95;1.00;;;17.60;99.90;;;;;;5048468;28;20089;-70
2023/07/10 02:21:07;;;;;;;3.10;1.15;;;17.50;99.90;;;;;;5035793;28;20044;-70
2023/07/10 02:23:34;;;;;;;2.65;1.00;;;17.50;99.90;;;;;;5017759;28;20041;-71
2023/07/10 02:26:01;;;;;;;4.40;1.38;;;17.50;99.90;;;;;;5030964;28;20037;-71
2023/07/10 02:28:26;;;;;;;3.55;1.25;;;17.40;99.90;;;;;;5048255;28;20492;-71
2023/07/10 02:30:52;;;;;;;7.85;1.30;;;17.40;99.90;;;;;;5031234;28;20032;-73
2023/07/10 02:33:19;;;;;;;5.35;1.25;;;17.30;99.90;;;;;;5049042;28;20076;-71
2023/07/10 02:35:45;;;;;;;2.10;1.33;;;17.30;99.90;;;;;;5048231;28;20032;-71
2023/07/10 02:38:11;;;;;;;3.00;1.20;;;17.30;99.90;;;;;;5031191;28;20041;-71
2023/07/10 02:40:36;;;;;;;2.72;1.00;;;17.20;99.90;;;;;;5030031;28;20770;-71
2023/07/10 02:43:02;;;;;;;4.25;1.10;;;17.20;99.90;;;;;;5048677;28;20132;-70
2023/07/10 02:45:28;;;;;;;2.88;1.00;;;17.20;99.90;;;;;;5047583;28;20048;-72
2023/07/10 02:47:53;;;;;;;3.40;1.40;;;17.20;99.90;;;;;;5048628;28;20041;-71
2023/07/10 02:50:19;;;;;;;4.32;1.50;;;17.10;99.90;;;;;;5048716;28;20033;-73
2023/07/10 02:52:44;;;;;;;5.47;2.22;;;17.10;99.90;;;;;;5029757;28;20148;-72
2023/07/10 02:55:10;;;;;;;3.58;1.55;;;17.10;99.90;;;;;;5048543;28;20069;-72
2023/07/10 02:57:36;;;;;;;3.45;1.48;;;17.10;99.90;;;;;;5047608;28;20064;-72
2023/07/10 03:00:03;;;;;;;5.65;2.40;;;17.10;99.90;;;;;;5047916;28;20021;-73
2023/07/10 03:02:28;;;;;;;6.45;2.03;;;17.00;99.90;;;;;;5029544;28;20045;-71
2023/07/10 03:04:54;;;;;;;4.13;2.17;;;17.00;99.90;;;;;;5048327;28;20036;-71
2023/07/10 03:07:20;;;;;;;7.85;2.03;;;17.00;99.90;;;;;;5048596;28;20037;-71
2023/07/10 03:09:45;;;;;;;4.60;1.85;;;16.90;99.90;;;;;;5047390;28;20112;-71
2023/07/10 03:12:11;;;;;;;3.17;1.73;;;16.90;99.90;;;;;;5048184;28;20094;-71
2023/07/10 03:14:36;;;;;;;5.68;2.47;;;16.90;99.90;;;;;;5029308;28;20040;-72
2023/07/10 03:17:04;;;;;;;5.00;2.00;;;16.90;99.90;;;;;;5048440;28;20041;-71
2023/07/10 03:19:30;;;;;;;5.68;2.67;;;16.80;99.90;;;;;;5029123;28;20049;-71
2023/07/10 03:21:56;;;;;;;3.45;1.80;;;16.80;99.90;;;;;;5048292;28;20037;-72
2023/07/10 03:24:21;;;;;;;5.43;2.20;;;16.80;99.90;;;;;;5047958;28;20514;-74
2023/07/10 03:26:47;;;;;;;6.82;2.03;;;16.80;99.90;;;;;;5029258;28;20102;-71
2023/07/10 03:29:15;;;;;;;4.18;1.80;;;16.70;99.90;;;;;;5047915;28;20041;-72
2023/07/10 03:31:41;;;;;;;6.03;2.00;;;16.70;99.90;;;;;;5047078;28;20065;-72
2023/07/10 03:34:07;;;;;;;4.97;2.45;;;16.70;99.90;;;;;;5047951;28;20044;-72
2023/07/10 03:36:33;;;;;;;4.85;1.92;;;16.70;99.90;;;;;;5029071;28;20032;-72
2023/07/10 03:38:59;;;;;;;4.38;2.28;;;16.70;99.90;;;;;;5048204;28;20690;-72
2023/07/10 03:41:25;;;;;;;6.28;2.00;;;16.70;99.90;;;;;;5047964;28;20075;-71
2023/07/10 03:43:51;;;;;;;6.65;1.98;;;16.70;99.90;;;;;;5047716;28;20040;-71
2023/07/10 03:46:17;;;;;;;6.28;2.08;;;16.70;99.90;;;;;;5047557;28;20028;-71
2023/07/10 03:48:43;;;;;;;4.68;1.83;;;16.70;99.90;;;;;;5029046;28;20037;-71
2023/07/10 03:51:09;;;;;;;4.28;2.10;;;16.60;99.90;;;;;;5028969;28;20045;-72
2023/07/10 03:53:35;;;;;;;3.70;1.90;;;16.60;99.90;;;;;;5028531;28;20804;-71
2023/07/10 03:56:00;;;;;;;12.18;2.92;;;16.60;99.90;;;;;;5047396;28;20039;-72
2023/07/10 03:58:29;;;;;;;3.83;1.52;;;16.60;99.90;;;;;;5046810;28;20036;-72
2023/07/10 04:00:56;;;;;;;6.80;2.15;;;16.60;99.90;;;;;;5029494;28;20071;-73
2023/07/10 04:03:24;;;;;;;8.82;2.30;;;16.60;99.90;;;;;;5029556;28;20060;-72
2023/07/10 04:05:52;;;;;;;4.28;2.17;;;16.60;99.90;;;;;;5046603;28;20482;-71
2023/07/10 04:08:22;;;;;;;6.28;2.05;;;16.60;99.90;;;;;;5029457;28;20521;-71
2023/07/10 04:10:52;;;;;;;4.45;1.83;;;16.60;99.90;;;;;;5027511;28;20064;-72
2023/07/10 04:13:18;;;;;;;3.47;1.73;;;16.60;99.90;;;;;;5027830;28;20041;-72
2023/07/10 04:16:01;;;;;;;5.97;1.70;;;16.60;99.90;;;;;;5041768;28;20132;-73
2023/07/10 04:18:33;;;;;;;7.18;2.13;;;16.60;99.90;;;;;;5028488;28;20033;-72
2023/07/10 04:20:59;;;;;;;5.00;1.88;;;16.60;99.90;;;;;;5029376;28;20163;-72
2023/07/10 04:23:26;;;;;;;4.32;1.75;;;16.60;99.90;;;;;;5046750;28;20029;-72
2023/07/10 04:25:52;;;;;;;4.80;1.45;;;16.60;99.90;;;;;;5028606;28;20040;-72
2023/07/10 04:28:18;;;;;;;5.55;1.67;;;16.60;99.90;;;;;;5047361;28;20041;-72
2023/07/10 04:30:47;;;;;;;6.53;1.77;;;16.60;99.90;;;;;;5034734;28;20154;-73
2023/07/10 04:33:16;;;;;;;4.37;1.90;;;16.60;99.90;;;;;;5046729;28;20057;-72
2023/07/10 04:35:43;;;;;;;2.97;1.42;;;16.60;99.90;;;;;;5028128;28;20121;-72
2023/07/10 04:38:10;;;;;;;5.15;1.60;;;16.60;99.90;;;;;;5014745;28;20449;-70
2023/07/10 04:40:36;;;;;;;4.70;1.77;;;16.70;99.90;;;;;;5046137;28;20029;-71
2023/07/10 04:43:04;;;;;;;6.63;2.13;;;16.70;99.90;;;;;;5047115;28;20391;-71
2023/07/10 04:45:30;;;;;;;3.45;1.63;;;16.70;99.90;;;;;;5026047;28;20033;-70
2023/07/10 04:47:56;;;;;;;6.53;1.80;;;16.70;99.90;;;;;;5046699;28;20075;-70
2023/07/10 04:50:22;;;;;;;3.10;1.48;;;16.70;99.90;;;;;;5047039;28;20711;-72
2023/07/10 04:52:48;;;;;;;3.53;1.40;;;16.70;99.90;;;;;;5046194;28;20036;-71
2023/07/10 04:55:14;;;;;;;4.57;1.98;;;16.70;99.90;;;;;;5028895;28;20079;-72
2023/07/10 04:57:40;;;;;;;5.30;1.90;;;16.70;99.90;;;;;;5045746;28;20120;-72
2023/07/10 05:00:06;;;;;;;4.53;1.60;;;16.80;99.90;;;;;;5047090;28;20124;-71
2023/07/10 05:02:31;;;;;;;6.70;1.55;;;16.80;99.90;;;;;;5044037;28;20044;-75
2023/07/10 05:04:57;;;;;;;5.38;1.80;;;16.80;99.90;;;;;;5027474;28;20025;-72
2023/07/10 05:07:23;;;;;;;4.65;1.40;;;16.80;99.90;;;;;;5046155;28;20124;-70
2023/07/10 05:09:48;;;;;;;4.72;1.98;;;16.80;99.90;;;;;;5026704;28;20440;-72
2023/07/10 05:12:16;;;;;;;6.47;2.53;;;16.90;99.90;;;;;;5045631;28;20044;-70
2023/07/10 05:14:41;;;;;;;5.78;1.73;;;16.90;99.90;;;;;;5026561;28;20045;-70
2023/07/10 05:17:07;;;;;;;5.55;2.08;;;17.00;99.90;;;;;;5028070;28;20052;-71
2023/07/10 05:19:33;;;;;;;6.88;2.42;;;17.00;99.90;;;;;;5026838;28;20033;-70
2023/07/10 05:21:59;;;;;;;5.60;1.83;;;17.10;99.90;;;;;;5028318;28;20617;-71
2023/07/10 05:24:25;;;;;;;7.65;1.40;;;17.10;99.90;;;;;;5049063;28;20107;-71
2023/07/10 05:26:51;;;;;;;5.10;1.50;;;17.20;99.90;;;;;;5048897;28;20125;-70
2023/07/10 05:29:17;;;;;;;9.38;1.67;;;17.20;99.90;;;;;;5031365;28;20445;-71
2023/07/10 05:31:42;;;;;;;5.47;1.67;;;17.20;99.90;;;;;;5048065;28;20502;-70
2023/07/10 05:34:08;;;;;;;4.93;1.98;;;17.30;99.90;;;;;;5048994;28;20549;-70
2023/07/10 05:36:33;;;;;;;8.63;2.08;;;17.30;99.90;;;;;;5030619;28;20039;-72
2023/07/10 05:38:59;;;;;;;4.65;2.35;;;17.40;99.90;;;;;;5049299;28;20175;-72
2023/07/10 05:41:25;;;;;;;4.43;1.17;;;17.40;99.90;;;;;;5048650;28;20044;-71
2023/07/10 05:43:50;;;;;;;4.45;1.40;;;17.50;99.90;;;;;;5032443;28;20033;-71
2023/07/10 05:46:17;;;;;;;6.50;1.83;;;17.60;99.90;;;;;;5050900;28;20037;-72
2023/07/10 05:48:43;;;;;;;2.65;1.20;;;17.80;99.90;;;;;;5049755;28;20045;-71
2023/07/10 05:51:08;;;;;;;8.57;1.60;;;18.10;99.90;;;;;;5031768;28;20051;-74
2023/07/10 05:53:34;;;;;;;3.97;1.27;;;18.40;99.90;;;;;;5048496;28;20529;-71
2023/07/10 05:56:00;;;;;;;2.53;1.25;;;18.90;99.90;;;;;;5049392;28;20095;-71
2023/07/10 05:58:29;;;;;;;2.47;0.90;;;19.40;99.90;;;;;;5032654;28;20550;-74
2023/07/10 06:00:59;;;;;;;2.63;0.93;;;19.90;99.90;;;;;;5049071;28;20040;-71
2023/07/10 06:03:25;;;;;;;4.15;0.85;;;20.50;99.90;;;;;;5028196;28;20749;-71
2023/07/10 06:05:56;;;;;;;5.80;1.20;;;20.80;99.90;;;;;;5044966;28;20094;-71
2023/07/10 06:08:24;;;;;;;6.15;1.00;;;21.10;99.90;;;;;;5027681;28;20403;-71
2023/07/10 06:10:49;;;;;;;4.43;1.60;;;21.20;99.90;;;;;;5048156;28;20053;-71
2023/07/10 06:13:15;;;;;;;3.00;0.77;;;21.30;99.90;;;;;;5049209;28;20087;-72
2023/07/10 06:15:46;;;;;;;2.75;0.90;;;21.30;99.90;;;;;;5030820;28;20102;-71
2023/07/10 06:18:13;;;;;;;6.38;1.48;;;21.30;99.90;;;;;;5050217;28;20044;-72
2023/07/10 06:20:39;;;;;;;5.40;1.33;;;21.40;99.90;;;;;;5030272;28;20560;-71
2023/07/10 06:23:05;;;;;;;4.97;1.02;;;21.40;99.90;;;;;;5049975;28;20036;-74
2023/07/10 06:25:30;;;;;;;2.33;0.90;;;21.30;99.90;;;;;;5030977;28;20082;-72
2023/07/10 06:27:56;;;;;;;7.18;1.23;;;21.40;99.90;;;;;;5049096;28;20036;-73
2023/07/10 06:30:22;;;;;;;4.78;0.90;;;21.40;99.90;;;;;;5031834;28;20109;-72
2023/07/10 06:32:47;;;;;;;4.72;1.38;;;21.40;99.90;;;;;;5048674;28;20446;-73
2023/07/10 06:35:14;;;;;;;2.90;0.85;;;21.40;99.90;;;;;;5030175;28;20036;-71
2023/07/10 06:37:41;;;;;;;1.60;0.75;;;21.50;99.90;;;;;;5048340;28;20032;-72
2023/07/10 06:40:13;;;;;;;4.65;1.08;;;21.60;99.90;;;;;;5031977;28;20037;-72
2023/07/10 06:42:40;;;;;;;3.67;0.65;;;21.70;99.90;;;;;;5031347;28;20041;-73
2023/07/10 06:45:07;;;;;;;2.25;0.60;;;21.80;99.90;;;;;;5032524;28;20045;-72
2023/07/10 06:47:38;;;;;;;2.88;0.80;;;21.90;99.90;;;;;;5030808;28;20115;-73
2023/07/10 06:50:04;;;;;;;5.18;1.15;;;22.10;99.90;;;;;;5048941;28;20399;-72
2023/07/10 06:52:30;;;;;;;5.45;1.67;;;22.40;99.90;;;;;;5029588;28;20040;-72
2023/07/10 06:54:56;;;;;;;7.13;0.88;;;22.90;99.90;;;;;;5030873;28;20835;-74
2023/07/10 06:57:21;;;;;;;5.15;1.17;;;23.20;99.90;;;;;;5031681;28;20041;-71
2023/07/10 06:59:47;;;;;;;4.00;1.13;;;23.60;99.90;;;;;;5047574;28;20082;-71
2023/07/10 07:02:12;;;;;;;6.32;1.30;;;23.80;99.90;;;;;;5030202;28;20036;-73
2023/07/10 07:04:38;;;;;;;8.35;1.98;;;23.70;99.90;;;;;;5028900;28;20388;-74
2023/07/10 07:07:04;;;;;;;2.50;0.77;;;23.80;99.90;;;;;;5030507;28;20082;-71
2023/07/10 07:09:30;;;;;;;4.53;1.00;;;23.80;99.90;;;;;;5029996;28;20116;-71
2023/07/10 07:11:55;;;;;;;4.70;1.20;;;24.00;99.90;;;;;;5030250;28;20041;-73
2023/07/10 07:14:21;;;;;;;7.43;0.93;;;24.40;99.90;;;;;;5049187;28;20043;-70
2023/07/10 07:16:46;;;;;;;4.05;1.02;;;24.90;99.90;;;;;;5039658;28;20037;-71
2023/07/10 07:19:12;;;;;;;3.15;0.98;;;25.60;99.90;;;;;;5048864;28;20068;-72
2023/07/10 07:21:37;;;;;;;7.50;1.23;;;26.30;99.90;;;;;;5050693;28;20494;-72
2023/07/10 07:24:03;;;;;;;8.65;1.55;;;27.00;99.90;;;;;;5048727;28;20505;-74
2023/07/10 07:26:29;;;;;;;7.60;1.50;;;27.50;99.90;;;;;;5029421;28;20044;-75
2023/07/10 07:28:55;;;;;;;8.38;2.13;;;28.00;99.90;;;;;;5048152;28;20036;-73
2023/07/10 07:31:20;;;;;;;4.10;1.33;;;28.90;99.90;;;;;;5048089;28;20044;-73
2023/07/10 07:33:48;;;;;;;6.97;1.65;;;29.40;98.90;;;;;;5046474;28;20037;-73
2023/07/10 07:36:14;;;;;;;6.85;1.70;;;30.40;97.60;;;;;;5030127;28;20669;-72
2023/07/10 07:38:39;;;;;;;4.85;1.42;;;31.10;96.20;;;;;;5029084;28;20043;-72
2023/07/10 07:41:06;;;;;;;11.25;2.05;;;31.50;95.50;;;;;;5029872;28;20051;-73
2023/07/10 07:43:33;;;;;;;6.40;2.05;;;31.70;94.60;;;;;;5046928;28;20197;-73
2023/07/10 07:45:58;;;;;;;8.63;2.08;;;32.00;93.20;;;;;;5047806;28;20090;-71
2023/07/10 07:48:25;;;;;;;10.15;2.58;;;32.40;92.80;;;;;;5047559;28;20029;-71
2023/07/10 07:50:58;;;;;;;10.32;1.85;;;31.50;93.30;;;;;;5047227;28;20116;-72
2023/07/10 07:53:25;;;;;;;4.63;1.52;;;31.00;94.10;;;;;;5047649;28;20041;-71
2023/07/10 07:55:51;;;;;;;8.80;2.15;;;31.50;93.00;;;;;;5047349;28;20041;-74
2023/07/10 07:58:17;;;;;;;5.18;1.38;;;32.40;91.60;;;;;;5052569;28;20040;-72
2023/07/10 08:00:43;;;;;;;10.70;2.10;;;32.40;91.30;;;;;;5046684;28;20061;-71
2023/07/10 08:03:10;;;;;;;10.40;2.00;;;32.80;91.10;;;;;;5047916;28;20120;-72
2023/07/10 08:05:36;;;;;;;9.40;2.17;;;32.60;91.20;;;;;;5028175;28;20017;-72
2023/07/10 08:08:06;;;;;;;7.20;1.95;;;32.30;90.90;;;;;;5029834;28;20027;-72
2023/07/10 08:10:43;;;;;;;8.82;2.25;;;31.90;90.80;;;;;;5029164;28;20491;-71
2023/07/10 08:13:10;;;;;;;5.10;1.92;;;31.60;91.10;;;;;;5047543;28;20073;-71
2023/07/10 08:15:36;;;;;;;6.78;2.17;;;31.60;90.60;;;;;;5046560;28;20033;-72
2023/07/10 08:18:02;;;;;;;6.15;1.65;;;31.10;90.30;;;;;;5047765;28;20029;-71
2023/07/10 08:20:28;;;;;;;9.63;2.25;;;30.40;90.90;;;;;;5046527;28;20466;-70
2023/07/10 08:22:53;;;;;;;8.85;1.80;;;29.70;91.10;;;;;;5047681;28;20021;-70
2023/07/10 08:25:19;;;;;;;9.00;1.65;;;29.10;91.60;;;;;;5047886;28;20136;-70
2023/07/10 08:27:45;;;;;;;5.38;1.45;;;28.40;92.00;;;;;;5028614;28;20497;-72
2023/07/10 08:30:12;;;;;;;19.77;1.45;;;28.10;91.70;;;;;;5047196;28;20062;-72
2023/07/10 08:32:38;;;;;;;5.15;0.85;;;27.60;92.50;;;;;;5046587;28;20041;-71
2023/07/10 08:35:05;;;;;;;6.43;1.10;;;27.30;93.10;;;;;;5047376;28;20395;-71
2023/07/10 08:37:30;;;;;;;4.97;1.00;;;27.00;93.70;;;;;;5046553;28;20033;-70
2023/07/10 08:39:56;;;;;;;5.35;0.65;;;26.70;94.30;;;;;;5029825;28;20025;-71
2023/07/10 08:42:27;;;;;;;3.30;1.08;;;26.60;94.50;;;;;;5047556;28;20119;-71
2023/07/10 08:44:53;;;;;;;7.95;1.30;;;26.50;94.60;;;;;;5046911;28;20090;-70
2023/07/10 08:47:24;;;;;;;2.70;0.82;;;26.30;95.40;;;;;;5047546;28;20029;-70
2023/07/10 08:50:12;;;;;;;5.22;1.15;;;26.40;95.40;;;;;;5046784;28;20060;-72
2023/07/10 08:52:53;;;;;;;6.50;1.17;;;26.30;95.00;;;;;;5028539;28;20043;-71
2023/07/10 08:55:47;;;;;;;6.45;1.33;;;26.20;93.80;;;;;;5029591;28;20444;-70
2023/07/10 08:58:25;;;;;;;8.82;0.50;;;26.00;93.70;;;;;;5019719;28;20041;-72
2023/07/10 09:00:56;;;;;;;3.40;0.88;;;26.00;94.70;;;;;;5050681;28;20118;-72
2023/07/10 09:03:31;;;;;;;4.20;0.65;;;25.90;94.30;;;;;;5051040;28;20091;-71
2023/07/10 09:05:57;;;;;;;1.92;0.43;;;25.80;92.30;;;;;;5032489;28;20037;-71
2023/07/10 09:08:26;;;;;;;4.97;0.93;;;25.60;91.60;;;;;;5050938;28;20029;-72
2023/07/10 09:10:55;;;;;;;6.82;1.25;;;25.50;92.20;;;;;;5050668;28;20065;-71
2023/07/10 09:13:31;;;;;;;7.53;0.90;;;25.40;91.70;;;;;;5050932;28;20040;-71
2023/07/10 09:15:58;;;;;;;3.30;0.57;;;25.30;91.90;;;;;;5032168;28;20036;-71
2023/07/10 09:18:38;;;;;;;2.88;0.40;;;25.30;93.10;;;;;;5032849;28;20044;-72
2023/07/10 09:21:17;;;;;;;4.95;1.30;;;25.30;93.70;;;;;;5033598;28;20079;-73
2023/07/10 09:23:44;;;;;;;4.65;0.98;;;25.40;94.70;;;;;;5042001;28;20036;-71
2023/07/10 09:26:13;;;;;;;2.40;0.57;;;25.40;93.30;;;;;;5050969;28;20060;-71
2023/07/10 09:28:40;;;;;;;4.95;0.77;;;25.50;93.60;;;;;;5015588;28;20041;-72
2023/07/10 09:31:08;;;;;;;10.65;1.00;;;25.40;94.30;;;;;;5033112;28;20553;-70
2023/07/10 09:33:44;;;;;;;6.18;0.55;;;25.60;94.40;;;;;;5031045;28;20060;-70
2023/07/10 09:36:15;;;;;;;3.83;0.98;;;25.60;94.00;;;;;;5030803;28;20063;-72
2023/07/10 09:38:44;;;;;;;3.78;0.70;;;25.70;94.40;;;;;;5045582;28;20072;-72
2023/07/10 09:41:29;;;;;;;3.50;0.68;;;25.70;94.10;;;;;;5029033;28;20037;-70
2023/07/10 09:43:57;;;;;;;2.55;0.70;;;25.80;95.40;;;;;;5032587;28;20037;-71
2023/07/10 09:46:29;;;;;;;8.75;1.00;;;25.90;94.60;;;;;;5053804;28;20071;-71
2023/07/10 09:48:56;;;;;;;4.47;1.00;;;26.10;93.80;;;;;;5052227;28;20043;-72
2023/07/10 09:51:23;;;;;;;4.47;1.15;;;26.20;93.80;;;;;;5032495;28;20037;-71
2023/07/10 09:53:53;;;;;;;5.78;0.82;;;26.20;94.20;;;;;;5049169;28;20033;-71
2023/07/10 09:56:35;;;;;;;8.07;0.90;;;26.40;94.00;;;;;;5032568;28;20063;-70
2023/07/10 09:59:13;;;;;;;6.05;0.93;;;26.40;94.00;;;;;;5053354;28;20116;-70
2023/07/10 10:01:39;;;;;;;4.90;0.82;;;26.50;93.10;;;;;;5044972;28;20059;-71
2023/07/10 10:04:05;;;;;;;3.70;0.93;;;26.50;94.30;;;;;;5031936;28;20033;-70
2023/07/10 10:06:31;;;;;;;3.63;0.75;;;26.60;93.50;;;;;;5048932;28;20040;-72
2023/07/10 10:08:57;;;;;;;1.90;0.60;;;26.80;93.60;;;;;;5049879;28;20412;-72
2023/07/10 10:11:38;;;;;;;2.95;0.60;;;26.90;93.80;;;;;;5050108;28;20057;-70
2023/07/10 10:14:09;;;;;;;4.97;1.15;;;26.90;93.10;;;;;;5048784;28;20621;-71
2023/07/10 10:16:41;;;;;;;8.00;1.10;;;26.80;92.80;;;;;;5031032;28;20044;-71
2023/07/10 10:19:33;;;;;;;4.25;0.73;;;26.90;92.30;;;;;;5042363;28;20040;-72
2023/07/10 10:21:59;;;;;;;4.28;1.02;;;27.00;93.60;;;;;;5050991;28;20051;-74
2023/07/10 10:24:28;;;;;;;3.03;0.70;;;27.00;93.30;;;;;;5033639;28;20040;-69
2023/07/10 10:27:06;;;;;;;4.38;0.60;;;27.10;92.70;;;;;;5051098;28;20044;-72
2023/07/10 10:30:09;;;;;;;4.85;1.13;;;27.00;93.00;;;;;;5049802;28;20043;-72
2023/07/10 10:32:41;;;;;;;5.03;1.08;;;27.00;93.00;;;;;;5048067;28;20033;-72
2023/07/10 10:35:49;;;;;;;7.70;1.13;;;27.10;93.40;;;;;;5035630;28;20106;-73
2023/07/10 10:38:20;;;;;;;6.35;1.10;;;27.10;92.50;;;;;;5036051;28;20115;-72
2023/07/10 10:41:10;;;;;;;4.60;0.70;;;27.00;93.40;;;;;;5030620;28;20045;-71
2023/07/10 10:43:43;;;;;;;7.10;1.20;;;27.10;93.80;;;;;;5022463;28;20087;-71
2023/07/10 10:46:41;;;;;;;7.40;1.27;;;27.30;92.60;;;;;;5027598;28;20495;-72
2023/07/10 10:49:24;;;;;;;6.90;1.00;;;27.50;93.10;;;;;;5040287;28;20412;-71
2023/07/10 10:52:34;;;;;;;2.10;0.70;;;27.40;93.30;;;;;;5041626;28;20044;-71
2023/07/10 10:55:24;;;;;;;3.72;0.77;;;27.30;92.20;;;;;;5011037;28;20041;-71
2023/07/10 10:57:57;;;;;;;;;;;27.10;93.10;;;;;;5033861;28;20105;-70
2023/07/10 11:00:48;;;;;;;3.08;0.85;;;26.60;92.80;;;;;;5049959;28;19917;-71
2023/07/10 11:03:40;;;;;;;4.13;0.90;;;26.30;92.90;;;;;;5027579;28;20045;-70
2023/07/10 11:06:15;;;;;;;5.60;1.00;;;26.00;93.10;;;;;;5029308;28;20111;-71
2023/07/10 11:08:48;;;;;;;4.15;0.60;;;26.10;93.20;;;;;;5026533;28;20048;-70
2023/07/10 11:11:32;;;;;;;3.70;0.70;;;26.30;93.10;;;;;;5030122;28;20043;-71
2023/07/10 11:14:00;;;;;;;10.60;1.33;;;26.60;92.90;;;;;;5029880;28;20041;-71
2023/07/10 11:16:29;;;;;;;4.57;0.70;;;26.80;92.80;;;;;;5048207;28;20033;-71
2023/07/10 11:18:56;;;;;;;3.70;0.93;;;26.80;92.80;;;;;;5037914;28;20040;-72
2023/07/10 11:21:22;;;;;;;2.38;0.50;;;27.00;93.90;;;;;;5029398;28;20201;-73
2023/07/10 11:23:49;;;;;;;3.28;0.90;;;27.20;93.60;;;;;;5047349;28;20063;-72
2023/07/10 11:26:22;;;;;;;5.38;1.38;;;27.20;92.80;;;;;;5029184;28;20120;-72
2023/07/10 11:28:51;;;;;;;4.20;0.90;;;27.40;92.90;;;;;;5029118;28;20032;-72
2023/07/10 11:31:21;;;;;;;6.45;0.73;;;27.50;92.30;;;;;;5043838;28;20120;-72
2023/07/10 11:33:51;;;;;;;6.20;0.80;;;27.60;92.60;;;;;;5044399;28;20592;-73
2023/07/10 11:36:34;;;;;;;2.85;1.27;;;27.70;93.00;;;;;;5025475;28;20087;-73
2023/07/10 11:39:30;;;;;;;5.80;0.90;;;27.70;92.70;;;;;;5025376;28;20029;-70
2023/07/10 11:41:55;;;;;;;2.42;0.73;;;27.70;92.30;;;;;;5025838;28;20032;-71
2023/07/10 11:44:31;;;;;;;2.92;0.57;;;27.60;92.30;;;;;;5038610;28;20052;-71
2023/07/10 11:46:57;;;;;;;6.65;0.57;;;27.40;92.00;;;;;;5026478;28;20111;-74
2023/07/10 11:49:42;;;;;;;6.55;1.27;;;27.20;92.70;;;;;;5026931;28;20041;-72
2023/07/10 11:52:13;;;;;;;7.85;1.25;;;27.00;92.10;;;;;;5042473;28;20116;-72
2023/07/10 11:54:41;;;;;;;4.28;1.15;;;26.90;93.30;;;;;;5026834;28;20064;-71
2023/07/10 11:57:06;;;;;;;6.55;1.48;;;27.00;93.20;;;;;;5026713;28;20431;-72
2023/07/10 11:59:34;;;;;;;7.35;0.98;;;27.20;92.70;;;;;;5026994;28;20037;-74
2023/07/10 12:02:00;;;;;;;4.80;1.08;;;27.20;92.20;;;;;;5022524;28;20059;-71
2023/07/10 12:04:26;;;;;;;13.82;0.90;;;27.20;91.70;;;;;;5045738;28;20042;-70
2023/07/10 12:06:58;;;;;;;3.20;0.70;;;27.30;92.30;;;;;;5043908;28;20060;-71
2023/07/10 12:09:24;;;;;;;4.63;1.27;;;27.40;91.50;;;;;;5027327;28;20040;-71
2023/07/10 12:11:55;;;;;;;3.20;0.85;;;27.40;91.40;;;;;;5026502;28;20072;-71
2023/07/10 12:14:21;;;;;;;4.47;1.00;;;27.40;92.10;;;;;;5028044;28;20080;-71
2023/07/10 12:16:58;;;;;;;4.32;0.60;;;27.50;92.30;;;;;;5044587;28;25376;-72
2023/07/10 12:19:33;;;;;;;3.97;0.63;;;27.30;91.10;;;;;;5027814;28;20085;-72
2023/07/10 12:22:13;;;;;;;4.38;1.15;;;27.30;91.50;;;;;;5022642;28;20033;-71
2023/07/10 12:24:58;;;;;;;4.87;1.33;;;27.20;91.40;;;;;;5028147;28;20033;-71
2023/07/10 12:27:24;;;;;;;2.95;0.80;;;27.20;92.30;;;;;;5028260;28;20037;-71
2023/07/10 12:29:52;;;;;;;6.78;1.20;;;27.20;91.20;;;;;;5027456;28;20055;-71
2023/07/10 12:32:18;;;;;;;2.75;1.17;;;27.20;91.40;;;;;;5027680;28;20037;-72
2023/07/10 12:34:45;;;;;;;5.15;0.90;;;27.40;91.90;;;;;;5048701;28;20037;-71
2023/07/10 12:37:12;;;;;;;4.15;0.80;;;27.50;91.90;;;;;;5049076;28;20072;-72
2023/07/10 12:39:38;;;;;;;4.57;0.80;;;27.50;91.90;;;;;;5048642;28;20057;-70
2023/07/10 12:42:31;;;;;;;3.67;0.57;;;27.50;91.70;;;;;;5031040;28;20069;-72
2023/07/10 12:44:57;;;;;;;1.95;0.75;;;27.60;92.70;;;;;;5049915;28;20044;-73
2023/07/10 12:47:22;;;;;;;5.20;0.68;;;27.60;91.20;;;;;;5049137;28;20719;-73
2023/07/10 12:49:53;;;;;;;4.30;1.08;;;27.60;90.90;;;;;;5049355;28;20041;-73
2023/07/10 12:52:20;;;;;;;5.55;0.85;;;27.50;91.40;;;;;;5030124;28;20041;-72
2023/07/10 12:54:50;;;;;;;3.50;0.98;;;27.50;91.90;;;;;;5030797;28;20074;-72
2023/07/10 12:57:19;;;;;;;5.43;1.20;;;27.50;92.10;;;;;;5048423;28;20037;-73
2023/07/10 12:59:48;;;;;;;5.00;0.70;;;27.50;91.40;;;;;;5046740;28;20037;-74